Texarkana, TX

9:33 AM CDT on April 30, 2017 (GMT -0500)
Texas High School - Texarkana | | Change Station
Active Advisory: Lake Wind Advisory

Elev 341 ft 33.45 °N, 94.07 °W | Updated 3 minutes ago

Rain
Rain
55.9 °F
Feels Like 55.9 °F
N
10.0
Wind Variable Wind from SSW
Gusts 15.0 mph

Today
High -- | Low -- °F
--% Chance of Precip.
Yesterday
High -- | Low -- °F
Precip. -- in
Pressure 29.79 in
Visibility 10.0 miles
Clouds Mostly Cloudy 700 ft
Mostly Cloudy 1300 ft
Overcast 11000 ft
Dew Point 54 °F
Humidity 93%
Rainfall 0.43 in
Snow Depth Not available.
6:28 AM 7:58 PM
Waxing Crescent, 23% visible
SPECI KTXK 301426Z 23012KT 10SM VCTS BKN007 BKN013 OVC110 13/12 A2979 RMK AO2 CIG 005V011 PRESRR T01330122
Pressure 29.79 in
Visibility 10.0 miles
Clouds Mostly Cloudy 700 ft
Mostly Cloudy 1300 ft
Overcast 11000 ft
Dew Point 54 °F
Humidity 93%
Rainfall 0.43 in
Snow Depth Not available.
6:28 AM 7:58 PM
Waxing Crescent, 23% visible
SPECI KTXK 301426Z 23012KT 10SM VCTS BKN007 BKN013 OVC110 13/12 A2979 RMK AO2 CIG 005V011 PRESRR T01330122

Get Your Daily Forecast Email!

Thanks for signing up!

Be on the lookout for a verification email in your inbox.

You'll start receiving severe weather alerts in your inbox..

×

10-Day Weather Forecast

Almanac

Astronomy

Apr. 30, 2017 Rise Set
Actual Time
Civil Twilight
Nautical Twilight
Astronomical Twilight
Moon
Length of Visible Light
Length of Day
Tomorrow will be .
, % of the Moon is Illuminated

Today's Extremes

State Highs State Lows

Community

WunderPhotos

WunderBlog® & News

Nearby

Air Quality

  Air Quality AQ Index Pollutant
Not available.

Snow Depth

Station Depth Elevation

Earthquake Activity

City Distance Mag. Time & Date
Minimum magnitude displayed is 2.5.

Coastal Water Temperatures

Place Temperature

Stations

Nearby Weather Stations

Station Location Temp. Windchill Dew Point Humidity Wind Precip. Elev Updated Type
                   

Watches & Warnings

Lake Wind Advisory
Issued: 4:19 AM CDT Apr. 30, 2017 – National Weather Service

... Lake Wind Advisory in effect from 11 am this morning to 7 PM
CDT this evening...

The National Weather Service in Shreveport has issued a lake Wind
Advisory, which is in effect from 11 am this morning to 7 PM CDT
this evening.

* Event... southwest winds will increase behind a cold front moving
across the region today.

* Timing... from 11 am CDT this morning until 7 PM CDT this evening

* impact... boaters should exercise caution on area lakes due to
rough chop conditions.

Precautionary/preparedness actions...

A lake Wind Advisory indicates that winds will cause rough chop
on area lakes. Small boats will be especially prone to capsizing.



19